Algiers, Algeria
Current Conditions -  °F | °C
As of 12:30 PM on Saturday 01 Nov 2014 (Local Time) from DAAG Reporting Station
Clear Clear  
Wind Chill: 77°   Ceiling: Unl
Heat Index: 79°   Visibility: 6mi
Dew Point: 55°   Wind: 6mph
Humidity: 47%   Direction: 50°NE
Pressure: 30.21"   Gusts: NA
Location:  36.77°N, 3.04°E
Report Text: DAAG 011130Z 05005KT 350V120 CAVOK 25/13 Q1023
Loading
Personal Weather Stations






























Interactive Weather Map
Tropical Storm Tracking
New forecast layout! Learn more

10-Day Weather Forecast

Advertisements
Track Severe Weather on mobile